sensor_id;sensor_type;location;lat;lon;timestamp;pressure;altitude;pressure_sealevel;temperature;humidity
23303;BME280;11820;48.738;9.092;2023-03-04T00:00:56;96772.31;;;2.89;100.00
23303;BME280;11820;48.738;9.092;2023-03-04T00:03:21;96770.69;;;2.78;100.00
23303;BME280;11820;48.738;9.092;2023-03-04T00:05:46;96771.66;;;2.87;100.00
23303;BME280;11820;48.738;9.092;2023-03-04T00:08:12;96775.53;;;2.72;100.00
23303;BME280;11820;48.738;9.092;2023-03-04T00:10:37;96775.38;;;2.64;100.00
23303;BME280;11820;48.738;9.092;2023-03-04T00:13:03;96769.75;;;2.51;100.00
23303;BME280;11820;48.738;9.092;2023-03-04T00:15:28;96777.00;;;2.65;100.00
23303;BME280;11820;48.738;9.092;2023-03-04T00:17:54;96774.88;;;2.89;100.00
23303;BME280;11820;48.738;9.092;2023-03-04T00:20:20;96770.56;;;2.80;100.00
23303;BME280;11820;48.738;9.092;2023-03-04T00:22:45;96784.81;;;2.92;100.00
23303;BME280;11820;48.738;9.092;2023-03-04T00:25:10;96768.44;;;3.04;100.00
23303;BME280;11820;48.738;9.092;2023-03-04T00:27:36;96774.47;;;2.84;100.00
23303;BME280;11820;48.738;9.092;2023-03-04T00:30:01;96772.59;;;2.86;100.00
23303;BME280;11820;48.738;9.092;2023-03-04T00:32:26;96771.13;;;2.83;100.00
23303;BME280;11820;48.738;9.092;2023-03-04T00:34:52;96767.91;;;2.81;100.00
23303;BME280;11820;48.738;9.092;2023-03-04T00:37:17;96770.81;;;2.58;100.00
23303;BME280;11820;48.738;9.092;2023-03-04T00:39:42;96773.22;;;2.50;100.00
23303;BME280;11820;48.738;9.092;2023-03-04T00:42:08;96774.16;;;2.39;100.00
23303;BME280;11820;48.738;9.092;2023-03-04T00:44:33;96768.38;;;2.37;100.00
23303;BME280;11820;48.738;9.092;2023-03-04T00:46:58;96767.84;;;2.43;100.00
23303;BME280;11820;48.738;9.092;2023-03-04T00:49:23;96771.72;;;2.47;100.00
23303;BME280;11820;48.738;9.092;2023-03-04T00:51:49;96771.38;;;2.71;100.00
23303;BME280;11820;48.738;9.092;2023-03-04T00:54:14;96772.81;;;2.54;100.00
23303;BME280;11820;48.738;9.092;2023-03-04T00:56:40;96772.56;;;2.57;100.00
23303;BME280;11820;48.738;9.092;2023-03-04T00:59:05;96767.06;;;2.62;100.00
23303;BME280;11820;48.738;9.092;2023-03-04T01:01:30;96766.53;;;2.58;100.00
23303;BME280;11820;48.738;9.092;2023-03-04T01:03:55;96768.53;;;2.55;100.00
23303;BME280;11820;48.738;9.092;2023-03-04T01:06:21;96767.03;;;2.52;100.00
23303;BME280;11820;48.738;9.092;2023-03-04T01:08:46;96766.50;;;2.49;100.00
23303;BME280;11820;48.738;9.092;2023-03-04T01:11:11;96758.31;;;2.55;100.00
23303;BME280;11820;48.738;9.092;2023-03-04T01:13:37;96764.06;;;2.38;100.00
23303;BME280;11820;48.738;9.092;2023-03-04T01:16:03;96765.94;;;2.36;100.00
23303;BME280;11820;48.738;9.092;2023-03-04T01:18:29;96765.16;;;2.64;100.00
23303;BME280;11820;48.738;9.092;2023-03-04T01:20:54;96758.84;;;2.68;100.00
23303;BME280;11820;48.738;9.092;2023-03-04T01:23:20;96756.75;;;2.73;100.00
23303;BME280;11820;48.738;9.092;2023-03-04T01:25:46;96752.84;;;2.69;100.00
23303;BME280;11820;48.738;9.092;2023-03-04T01:28:11;96750.94;;;2.80;100.00
23303;BME280;11820;48.738;9.092;2023-03-04T01:30:37;96748.91;;;2.65;100.00
23303;BME280;11820;48.738;9.092;2023-03-04T01:33:02;96745.84;;;2.80;100.00
23303;BME280;11820;48.738;9.092;2023-03-04T01:35:27;96752.69;;;2.80;100.00
23303;BME280;11820;48.738;9.092;2023-03-04T01:37:52;96744.50;;;2.86;100.00
23303;BME280;11820;48.738;9.092;2023-03-04T01:40:18;96747.97;;;2.66;100.00
23303;BME280;11820;48.738;9.092;2023-03-04T01:42:43;96752.50;;;2.34;100.00
23303;BME280;11820;48.738;9.092;2023-03-04T01:45:13;96750.63;;;2.36;100.00
23303;BME280;11820;48.738;9.092;2023-03-04T01:47:40;96749.31;;;2.41;100.00
23303;BME280;11820;48.738;9.092;2023-03-04T01:50:26;96751.75;;;2.03;100.00
23303;BME280;11820;48.738;9.092;2023-03-04T01:52:52;96742.25;;;2.15;100.00
23303;BME280;11820;48.738;9.092;2023-03-04T01:55:19;96742.00;;;2.18;100.00
23303;BME280;11820;48.738;9.092;2023-03-04T01:57:47;96744.19;;;2.41;100.00
23303;BME280;11820;48.738;9.092;2023-03-04T02:00:29;96740.72;;;2.42;100.00
23303;BME280;11820;48.738;9.092;2023-03-04T02:03:01;96743.38;;;2.31;100.00
23303;BME280;11820;48.738;9.092;2023-03-04T02:05:29;96745.25;;;2.20;100.00
23303;BME280;11820;48.738;9.092;2023-03-04T02:07:56;96737.22;;;2.43;100.00
23303;BME280;11820;48.738;9.092;2023-03-04T02:10:23;96738.75;;;2.16;100.00
23303;BME280;11820;48.738;9.092;2023-03-04T02:12:49;96742.47;;;2.02;100.00
23303;BME280;11820;48.738;9.092;2023-03-04T02:15:15;96740.06;;;2.01;100.00
23303;BME280;11820;48.738;9.092;2023-03-04T02:17:40;96736.91;;;2.18;100.00
23303;BME280;11820;48.738;9.092;2023-03-04T02:20:22;96734.47;;;2.16;100.00
23303;BME280;11820;48.738;9.092;2023-03-04T02:23:16;96728.19;;;2.30;100.00
23303;BME280;11820;48.738;9.092;2023-03-04T02:25:51;96740.41;;;2.36;100.00
23303;BME280;11820;48.738;9.092;2023-03-04T02:28:19;96735.59;;;2.33;100.00
23303;BME280;11820;48.738;9.092;2023-03-04T02:30:45;96733.88;;;2.43;100.00
23303;BME280;11820;48.738;9.092;2023-03-04T02:33:16;96728.97;;;2.11;100.00
23303;BME280;11820;48.738;9.092;2023-03-04T02:35:41;96732.38;;;2.31;100.00
23303;BME280;11820;48.738;9.092;2023-03-04T02:38:09;96734.78;;;2.32;100.00
23303;BME280;11820;48.738;9.092;2023-03-04T02:40:35;96734.38;;;2.37;100.00
23303;BME280;11820;48.738;9.092;2023-03-04T02:43:01;96734.78;;;2.32;100.00
23303;BME280;11820;48.738;9.092;2023-03-04T02:45:31;96732.94;;;2.44;100.00
23303;BME280;11820;48.738;9.092;2023-03-04T02:47:59;96734.56;;;2.45;100.00
23303;BME280;11820;48.738;9.092;2023-03-04T02:50:25;96737.50;;;2.50;100.00
23303;BME280;11820;48.738;9.092;2023-03-04T02:52:52;96737.00;;;2.07;100.00
23303;BME280;11820;48.738;9.092;2023-03-04T02:55:17;96741.06;;;2.19;100.00
23303;BME280;11820;48.738;9.092;2023-03-04T02:57:42;96730.47;;;2.23;100.00
23303;BME280;11820;48.738;9.092;2023-03-04T03:00:08;96732.72;;;2.07;100.00
23303;BME280;11820;48.738;9.092;2023-03-04T03:02:34;96732.88;;;2.15;100.00
23303;BME280;11820;48.738;9.092;2023-03-04T03:04:59;96729.25;;;2.27;100.00
23303;BME280;11820;48.738;9.092;2023-03-04T03:07:24;96736.44;;;2.03;100.00
23303;BME280;11820;48.738;9.092;2023-03-04T03:09:50;96732.78;;;1.87;100.00
23303;BME280;11820;48.738;9.092;2023-03-04T03:12:15;96725.34;;;2.04;100.00
23303;BME280;11820;48.738;9.092;2023-03-04T03:14:40;96736.06;;;2.08;100.00
23303;BME280;11820;48.738;9.092;2023-03-04T03:17:06;96739.41;;;1.99;100.00
23303;BME280;11820;48.738;9.092;2023-03-04T03:19:31;96734.56;;;1.96;100.00
23303;BME280;11820;48.738;9.092;2023-03-04T03:21:56;96736.84;;;1.99;100.00
23303;BME280;11820;48.738;9.092;2023-03-04T03:24:21;96733.38;;;2.00;100.00
23303;BME280;11820;48.738;9.092;2023-03-04T03:26:47;96724.00;;;2.10;100.00
23303;BME280;11820;48.738;9.092;2023-03-04T03:29:12;96736.13;;;2.27;100.00
23303;BME280;11820;48.738;9.092;2023-03-04T03:31:37;96736.78;;;2.29;100.00
23303;BME280;11820;48.738;9.092;2023-03-04T03:34:03;96729.25;;;2.18;100.00
23303;BME280;11820;48.738;9.092;2023-03-04T03:36:28;96728.31;;;2.19;100.00
23303;BME280;11820;48.738;9.092;2023-03-04T03:38:53;96731.69;;;2.29;100.00
23303;BME280;11820;48.738;9.092;2023-03-04T03:41:19;96737.72;;;2.28;100.00
23303;BME280;11820;48.738;9.092;2023-03-04T03:43:44;96731.41;;;2.22;100.00
23303;BME280;11820;48.738;9.092;2023-03-04T03:46:09;96730.75;;;2.30;100.00
23303;BME280;11820;48.738;9.092;2023-03-04T03:48:35;96727.00;;;2.34;100.00
23303;BME280;11820;48.738;9.092;2023-03-04T03:51:00;96722.72;;;2.34;100.00
23303;BME280;11820;48.738;9.092;2023-03-04T03:53:25;96716.50;;;2.18;100.00
23303;BME280;11820;48.738;9.092;2023-03-04T03:55:51;96727.56;;;2.37;100.00
23303;BME280;11820;48.738;9.092;2023-03-04T03:58:16;96720.84;;;2.36;100.00
23303;BME280;11820;48.738;9.092;2023-03-04T04:00:41;96729.69;;;2.42;100.00
23303;BME280;11820;48.738;9.092;2023-03-04T04:03:08;96720.03;;;2.55;100.00
23303;BME280;11820;48.738;9.092;2023-03-04T04:05:35;96720.69;;;2.47;100.00
23303;BME280;11820;48.738;9.092;2023-03-04T04:08:00;96729.69;;;2.42;100.00
23303;BME280;11820;48.738;9.092;2023-03-04T04:10:26;96728.22;;;2.39;100.00
23303;BME280;11820;48.738;9.092;2023-03-04T04:12:51;96725.28;;;2.44;100.00
23303;BME280;11820;48.738;9.092;2023-03-04T04:15:16;96724.06;;;2.48;100.00
23303;BME280;11820;48.738;9.092;2023-03-04T04:17:42;96729.44;;;2.35;100.00
23303;BME280;11820;48.738;9.092;2023-03-04T04:20:08;96733.44;;;2.19;100.00
23303;BME280;11820;48.738;9.092;2023-03-04T04:22:33;96730.03;;;2.09;100.00
23303;BME280;11820;48.738;9.092;2023-03-04T04:24:58;96732.97;;;1.95;100.00
23303;BME280;11820;48.738;9.092;2023-03-04T04:27:24;96725.22;;;1.76;100.00
23303;BME280;11820;48.738;9.092;2023-03-04T04:29:49;96728.50;;;1.87;100.00
23303;BME280;11820;48.738;9.092;2023-03-04T04:32:14;96729.88;;;2.01;100.00
23303;BME280;11820;48.738;9.092;2023-03-04T04:34:40;96735.75;;;1.92;100.00
23303;BME280;11820;48.738;9.092;2023-03-04T04:37:05;96729.81;;;1.82;100.00
23303;BME280;11820;48.738;9.092;2023-03-04T04:39:30;96728.59;;;1.86;100.00
23303;BME280;11820;48.738;9.092;2023-03-04T04:41:56;96730.13;;;1.98;100.00
23303;BME280;11820;48.738;9.092;2023-03-04T04:44:21;96728.13;;;2.01;100.00
23303;BME280;11820;48.738;9.092;2023-03-04T04:46:46;96731.56;;;1.91;100.00
23303;BME280;11820;48.738;9.092;2023-03-04T04:49:12;96735.44;;;1.76;100.00
23303;BME280;11820;48.738;9.092;2023-03-04T04:51:37;96736.72;;;1.70;100.00
23303;BME280;11820;48.738;9.092;2023-03-04T04:54:03;96731.53;;;1.52;100.00
23303;BME280;11820;48.738;9.092;2023-03-04T04:56:28;96746.44;;;1.26;100.00
23303;BME280;11820;48.738;9.092;2023-03-04T04:58:59;96733.06;;;1.34;100.00
23303;BME280;11820;48.738;9.092;2023-03-04T05:01:26;96749.16;;;1.14;100.00
23303;BME280;11820;48.738;9.092;2023-03-04T05:03:51;96736.28;;;0.95;100.00
23303;BME280;11820;48.738;9.092;2023-03-04T05:06:22;96737.03;;;1.47;100.00
23303;BME280;11820;48.738;9.092;2023-03-04T05:08:48;96733.78;;;1.65;100.00
23303;BME280;11820;48.738;9.092;2023-03-04T05:11:14;96735.69;;;1.73;100.00
23303;BME280;11820;48.738;9.092;2023-03-04T05:13:40;96733.50;;;1.68;100.00
23303;BME280;11820;48.738;9.092;2023-03-04T05:16:05;96727.81;;;1.85;100.00
23303;BME280;11820;48.738;9.092;2023-03-04T05:18:31;96728.97;;;1.72;100.00
23303;BME280;11820;48.738;9.092;2023-03-04T05:20:59;96741.19;;;1.48;100.00
23303;BME280;11820;48.738;9.092;2023-03-04T05:23:26;96739.16;;;1.72;100.00
23303;BME280;11820;48.738;9.092;2023-03-04T05:25:51;96738.03;;;1.65;100.00
23303;BME280;11820;48.738;9.092;2023-03-04T05:28:17;96746.56;;;1.45;100.00
23303;BME280;11820;48.738;9.092;2023-03-04T05:30:43;96748.91;;;0.96;100.00
23303;BME280;11820;48.738;9.092;2023-03-04T05:33:10;96748.22;;;0.94;100.00
23303;BME280;11820;48.738;9.092;2023-03-04T05:35:37;96745.88;;;1.02;100.00
23303;BME280;11820;48.738;9.092;2023-03-04T05:38:04;96748.25;;;0.83;100.00
23303;BME280;11820;48.738;9.092;2023-03-04T05:40:30;96744.50;;;0.78;100.00
23303;BME280;11820;48.738;9.092;2023-03-04T05:42:55;96753.69;;;0.90;100.00
23303;BME280;11820;48.738;9.092;2023-03-04T05:45:21;96745.97;;;1.01;100.00
23303;BME280;11820;48.738;9.092;2023-03-04T05:47:47;96752.81;;;1.00;100.00
23303;BME280;11820;48.738;9.092;2023-03-04T05:50:13;96751.38;;;0.87;100.00
23303;BME280;11820;48.738;9.092;2023-03-04T05:52:38;96754.94;;;0.95;100.00
23303;BME280;11820;48.738;9.092;2023-03-04T05:55:04;96756.72;;;1.04;100.00
23303;BME280;11820;48.738;9.092;2023-03-04T05:57:29;96760.97;;;0.94;100.00
23303;BME280;11820;48.738;9.092;2023-03-04T05:59:55;96757.31;;;1.08;100.00
23303;BME280;11820;48.738;9.092;2023-03-04T06:02:20;96754.44;;;1.01;100.00
23303;BME280;11820;48.738;9.092;2023-03-04T06:04:45;96757.47;;;0.95;100.00
23303;BME280;11820;48.738;9.092;2023-03-04T06:07:11;96757.22;;;1.19;100.00
23303;BME280;11820;48.738;9.092;2023-03-04T06:09:36;96763.41;;;1.16;100.00
23303;BME280;11820;48.738;9.092;2023-03-04T06:12:01;96763.63;;;1.13;100.00
23303;BME280;11820;48.738;9.092;2023-03-04T06:14:27;96760.47;;;1.21;100.00
23303;BME280;11820;48.738;9.092;2023-03-04T06:16:52;96762.50;;;0.86;100.00
23303;BME280;11820;48.738;9.092;2023-03-04T06:19:18;96767.91;;;0.92;100.00
23303;BME280;11820;48.738;9.092;2023-03-04T06:21:43;96767.66;;;0.95;100.00
23303;BME280;11820;48.738;9.092;2023-03-04T06:24:08;96767.22;;;1.11;100.00
23303;BME280;11820;48.738;9.092;2023-03-04T06:26:34;96769.59;;;1.23;100.00
23303;BME280;11820;48.738;9.092;2023-03-04T06:28:59;96770.38;;;1.24;100.00
23303;BME280;11820;48.738;9.092;2023-03-04T06:31:24;96775.28;;;1.36;100.00
23303;BME280;11820;48.738;9.092;2023-03-04T06:33:50;96780.22;;;1.28;100.00
23303;BME280;11820;48.738;9.092;2023-03-04T06:36:15;96784.31;;;1.40;100.00
23303;BME280;11820;48.738;9.092;2023-03-04T06:38:40;96782.31;;;1.44;100.00
23303;BME280;11820;48.738;9.092;2023-03-04T06:41:07;96789.91;;;1.34;100.00
23303;BME280;11820;48.738;9.092;2023-03-04T06:43:33;96797.34;;;1.26;100.00
23303;BME280;11820;48.738;9.092;2023-03-04T06:45:59;96785.63;;;1.35;100.00
23303;BME280;11820;48.738;9.092;2023-03-04T06:48:24;96796.66;;;1.65;100.00
23303;BME280;11820;48.738;9.092;2023-03-04T06:50:49;96796.00;;;1.22;100.00
23303;BME280;11820;48.738;9.092;2023-03-04T06:53:14;96792.16;;;1.28;100.00
23303;BME280;11820;48.738;9.092;2023-03-04T06:55:40;96792.59;;;1.33;100.00
23303;BME280;11820;48.738;9.092;2023-03-04T06:58:05;96793.63;;;1.30;100.00
23303;BME280;11820;48.738;9.092;2023-03-04T07:00:30;96805.50;;;1.20;100.00
23303;BME280;11820;48.738;9.092;2023-03-04T07:02:57;96808.34;;;1.27;100.00
23303;BME280;11820;48.738;9.092;2023-03-04T07:05:23;96802.28;;;1.39;100.00
23303;BME280;11820;48.738;9.092;2023-03-04T07:07:48;96807.00;;;1.43;100.00
23303;BME280;11820;48.738;9.092;2023-03-04T07:10:15;96804.13;;;1.37;100.00
23303;BME280;11820;48.738;9.092;2023-03-04T07:12:40;96805.13;;;1.45;100.00
23303;BME280;11820;48.738;9.092;2023-03-04T07:15:06;96808.78;;;1.52;100.00
23303;BME280;11820;48.738;9.092;2023-03-04T07:17:32;96809.53;;;1.63;100.00
23303;BME280;11820;48.738;9.092;2023-03-04T07:19:58;96809.84;;;1.50;100.00
23303;BME280;11820;48.738;9.092;2023-03-04T07:22:24;96822.81;;;1.26;100.00
23303;BME280;11820;48.738;9.092;2023-03-04T07:24:49;96824.06;;;1.52;100.00
23303;BME280;11820;48.738;9.092;2023-03-04T07:27:14;96824.25;;;1.40;100.00
23303;BME280;11820;48.738;9.092;2023-03-04T07:29:40;96827.25;;;1.13;100.00
23303;BME280;11820;48.738;9.092;2023-03-04T07:32:09;96832.22;;;1.46;100.00
23303;BME280;11820;48.738;9.092;2023-03-04T07:34:34;96826.69;;;1.41;100.00
23303;BME280;11820;48.738;9.092;2023-03-04T07:36:59;96828.03;;;1.25;100.00
23303;BME280;11820;48.738;9.092;2023-03-04T07:39:25;96826.19;;;1.47;100.00
23303;BME280;11820;48.738;9.092;2023-03-04T07:41:50;96830.16;;;1.60;100.00
23303;BME280;11820;48.738;9.092;2023-03-04T07:44:15;96829.88;;;1.84;100.00
23303;BME280;11820;48.738;9.092;2023-03-04T07:46:41;96832.50;;;1.93;100.00
23303;BME280;11820;48.738;9.092;2023-03-04T07:49:06;96829.56;;;1.77;100.00
23303;BME280;11820;48.738;9.092;2023-03-04T07:51:32;96831.53;;;1.44;100.00
23303;BME280;11820;48.738;9.092;2023-03-04T07:53:59;96833.03;;;1.67;100.00
23303;BME280;11820;48.738;9.092;2023-03-04T07:56:28;96837.50;;;1.54;100.00
23303;BME280;11820;48.738;9.092;2023-03-04T07:58:53;96841.66;;;1.55;100.00
23303;BME280;11820;48.738;9.092;2023-03-04T08:01:25;96842.81;;;1.71;100.00
23303;BME280;11820;48.738;9.092;2023-03-04T08:03:51;96848.06;;;1.70;100.00
23303;BME280;11820;48.738;9.092;2023-03-04T08:06:19;96842.47;;;1.76;100.00
23303;BME280;11820;48.738;9.092;2023-03-04T08:08:45;96853.09;;;2.11;100.00
23303;BME280;11820;48.738;9.092;2023-03-04T08:11:13;96848.84;;;1.91;100.00
23303;BME280;11820;48.738;9.092;2023-03-04T08:13:39;96844.38;;;1.83;100.00
23303;BME280;11820;48.738;9.092;2023-03-04T08:16:04;96849.84;;;1.79;100.00
23303;BME280;11820;48.738;9.092;2023-03-04T08:18:30;96848.13;;;1.59;100.00
23303;BME280;11820;48.738;9.092;2023-03-04T08:20:55;96850.78;;;1.78;100.00
23303;BME280;11820;48.738;9.092;2023-03-04T08:23:21;96852.69;;;2.06;100.00
23303;BME280;11820;48.738;9.092;2023-03-04T08:25:46;96858.19;;;2.11;100.00
23303;BME280;11820;48.738;9.092;2023-03-04T08:28:12;96853.75;;;2.33;100.00
23303;BME280;11820;48.738;9.092;2023-03-04T08:30:38;96861.88;;;2.27;100.00
23303;BME280;11820;48.738;9.092;2023-03-04T08:33:04;96861.25;;;2.35;100.00
23303;BME280;11820;48.738;9.092;2023-03-04T08:35:30;96865.25;;;2.28;100.00
23303;BME280;11820;48.738;9.092;2023-03-04T08:37:55;96864.53;;;2.16;100.00
23303;BME280;11820;48.738;9.092;2023-03-04T08:40:20;96859.13;;;2.40;100.00
23303;BME280;11820;48.738;9.092;2023-03-04T08:42:45;96860.94;;;2.68;100.00
23303;BME280;11820;48.738;9.092;2023-03-04T08:45:11;96872.97;;;2.77;100.00
23303;BME280;11820;48.738;9.092;2023-03-04T08:47:37;96867.44;;;2.72;100.00
23303;BME280;11820;48.738;9.092;2023-03-04T08:50:04;96874.53;;;2.29;100.00
23303;BME280;11820;48.738;9.092;2023-03-04T08:52:30;96874.63;;;2.18;100.00
23303;BME280;11820;48.738;9.092;2023-03-04T08:54:56;96875.53;;;2.17;100.00
23303;BME280;11820;48.738;9.092;2023-03-04T08:57:23;96873.81;;;2.17;100.00
23303;BME280;11820;48.738;9.092;2023-03-04T08:59:48;96884.63;;;2.30;100.00
23303;BME280;11820;48.738;9.092;2023-03-04T09:02:13;96875.63;;;2.06;100.00
23303;BME280;11820;48.738;9.092;2023-03-04T09:04:39;96877.19;;;2.18;100.00
23303;BME280;11820;48.738;9.092;2023-03-04T09:07:05;96877.13;;;2.38;100.00
23303;BME280;11820;48.738;9.092;2023-03-04T09:09:31;96875.16;;;2.21;100.00
23303;BME280;11820;48.738;9.092;2023-03-04T09:11:57;96881.25;;;2.30;100.00
23303;BME280;11820;48.738;9.092;2023-03-04T09:14:22;96878.53;;;2.52;100.00
23303;BME280;11820;48.738;9.092;2023-03-04T09:16:47;96886.50;;;2.08;100.00
23303;BME280;11820;48.738;9.092;2023-03-04T09:19:13;96887.88;;;1.91;100.00
23303;BME280;11820;48.738;9.092;2023-03-04T09:21:38;96888.16;;;1.88;100.00
23303;BME280;11820;48.738;9.092;2023-03-04T09:24:04;96892.28;;;2.10;100.00
23303;BME280;11820;48.738;9.092;2023-03-04T09:26:29;96894.16;;;2.08;100.00
23303;BME280;11820;48.738;9.092;2023-03-04T09:28:57;96889.56;;;2.02;100.00
23303;BME280;11820;48.738;9.092;2023-03-04T09:31:23;96887.59;;;2.35;100.00
23303;BME280;11820;48.738;9.092;2023-03-04T09:33:51;96882.75;;;2.42;100.00
23303;BME280;11820;48.738;9.092;2023-03-04T09:36:16;96888.63;;;2.03;100.00
23303;BME280;11820;48.738;9.092;2023-03-04T09:38:42;96880.78;;;2.15;100.00
23303;BME280;11820;48.738;9.092;2023-03-04T09:41:20;96890.34;;;2.23;100.00
23303;BME280;11820;48.738;9.092;2023-03-04T09:43:47;96894.84;;;2.40;100.00
23303;BME280;11820;48.738;9.092;2023-03-04T09:46:37;96882.94;;;2.50;100.00
23303;BME280;11820;48.738;9.092;2023-03-04T09:49:01;96885.69;;;2.67;100.00
23303;BME280;11820;48.738;9.092;2023-03-04T09:56:41;96878.53;;;2.52;100.00
23303;BME280;11820;48.738;9.092;2023-03-04T09:59:18;96881.84;;;2.52;100.00
23303;BME280;11820;48.738;9.092;2023-03-04T10:01:57;96881.81;;;2.73;100.00
23303;BME280;11820;48.738;9.092;2023-03-04T10:04:47;96879.16;;;2.84;100.00
23303;BME280;11820;48.738;9.092;2023-03-04T10:07:23;96888.72;;;3.01;100.00
23303;BME280;11820;48.738;9.092;2023-03-04T10:12:21;96877.47;;;2.64;100.00
23303;BME280;11820;48.738;9.092;2023-03-04T10:14:53;96880.47;;;2.69;100.00
23303;BME280;11820;48.738;9.092;2023-03-04T10:19:57;96884.81;;;2.97;100.00
23303;BME280;11820;48.738;9.092;2023-03-04T10:22:46;96878.94;;;3.24;100.00
23303;BME280;11820;48.738;9.092;2023-03-04T10:25:22;96877.19;;;3.34;100.00
23303;BME280;11820;48.738;9.092;2023-03-04T10:27:58;96865.09;;;3.55;100.00
23303;BME280;11820;48.738;9.092;2023-03-04T10:33:28;96865.81;;;4.03;100.00
23303;BME280;11820;48.738;9.092;2023-03-04T10:36:03;96863.03;;;3.68;100.00
23303;BME280;11820;48.738;9.092;2023-03-04T10:38:32;96865.75;;;3.57;100.00
23303;BME280;11820;48.738;9.092;2023-03-04T10:40:59;96871.41;;;3.70;100.00
23303;BME280;11820;48.738;9.092;2023-03-04T10:43:25;96871.56;;;4.24;100.00
23303;BME280;11820;48.738;9.092;2023-03-04T10:45:56;96862.13;;;4.15;100.00
23303;BME280;11820;48.738;9.092;2023-03-04T10:48:24;96868.50;;;4.11;100.00
23303;BME280;11820;48.738;9.092;2023-03-04T10:50:50;96867.34;;;3.87;100.00
23303;BME280;11820;48.738;9.092;2023-03-04T10:53:24;96862.13;;;3.50;100.00
23303;BME280;11820;48.738;9.092;2023-03-04T10:55:52;96858.75;;;3.78;100.00
23303;BME280;11820;48.738;9.092;2023-03-04T10:58:19;96857.69;;;3.62;100.00
23303;BME280;11820;48.738;9.092;2023-03-04T11:00:58;96860.38;;;3.70;100.00
23303;BME280;11820;48.738;9.092;2023-03-04T11:06:06;96847.41;;;3.90;100.00
23303;BME280;11820;48.738;9.092;2023-03-04T11:08:31;96852.84;;;3.49;100.00
23303;BME280;11820;48.738;9.092;2023-03-04T11:10:57;96854.97;;;3.63;100.00
23303;BME280;11820;48.738;9.092;2023-03-04T11:13:24;96846.91;;;3.77;100.00
23303;BME280;11820;48.738;9.092;2023-03-04T11:18:22;96845.41;;;3.84;100.00
23303;BME280;11820;48.738;9.092;2023-03-04T11:20:51;96847.69;;;3.68;100.00
23303;BME280;11820;48.738;9.092;2023-03-04T11:23:35;96839.34;;;3.85;100.00
23303;BME280;11820;48.738;9.092;2023-03-04T11:26:08;96843.31;;;3.51;100.00
23303;BME280;11820;48.738;9.092;2023-03-04T11:31:19;96834.81;;;3.41;100.00
23303;BME280;11820;48.738;9.092;2023-03-04T11:34:14;96838.84;;;3.53;100.00
23303;BME280;11820;48.738;9.092;2023-03-04T11:36:59;96837.09;;;3.44;100.00
23303;BME280;11820;48.738;9.092;2023-03-04T11:39:34;96838.03;;;3.53;100.00
23303;BME280;11820;48.738;9.092;2023-03-04T11:42:11;96836.97;;;3.55;100.00
23303;BME280;11820;48.738;9.092;2023-03-04T11:44:39;96833.75;;;3.34;100.00
23303;BME280;11820;48.738;9.092;2023-03-04T11:47:21;96836.31;;;3.53;100.00
23303;BME280;11820;48.738;9.092;2023-03-04T12:09:17;96805.16;;;3.77;100.00
23303;BME280;11820;48.738;9.092;2023-03-04T12:11:57;96802.91;;;3.74;100.00
23303;BME280;11820;48.738;9.092;2023-03-04T12:14:37;96796.50;;;3.97;100.00
23303;BME280;11820;48.738;9.092;2023-03-04T12:20:13;96789.91;;;3.48;100.00
23303;BME280;11820;48.738;9.092;2023-03-04T12:22:50;96783.97;;;3.48;100.00
23303;BME280;11820;48.738;9.092;2023-03-04T12:28:48;96779.41;;;3.42;100.00
23303;BME280;11820;48.738;9.092;2023-03-04T12:36:37;96774.44;;;3.40;100.00
23303;BME280;11820;48.738;9.092;2023-03-04T12:44:22;96767.56;;;3.50;100.00
23303;BME280;11820;48.738;9.092;2023-03-04T12:47:09;96759.25;;;3.48;100.00
23303;BME280;11820;48.738;9.092;2023-03-04T12:49:59;96757.75;;;3.46;100.00
23303;BME280;11820;48.738;9.092;2023-03-04T12:52:33;96752.38;;;3.39;100.00
23303;BME280;11820;48.738;9.092;2023-03-04T12:55:07;96759.25;;;3.48;100.00
23303;BME280;11820;48.738;9.092;2023-03-04T12:57:34;96751.66;;;4.02;100.00
23303;BME280;11820;48.738;9.092;2023-03-04T13:00:19;96744.00;;;3.66;100.00
23303;BME280;11820;48.738;9.092;2023-03-04T13:17:35;96733.72;;;4.56;100.00
23303;BME280;11820;48.738;9.092;2023-03-04T13:19:56;96733.47;;;4.32;100.00
23303;BME280;11820;48.738;9.092;2023-03-04T13:22:55;96739.22;;;3.80;100.00
23303;BME280;11820;48.738;9.092;2023-03-04T13:25:34;96743.03;;;4.03;100.00
23303;BME280;11820;48.738;9.092;2023-03-04T13:28:24;96742.00;;;3.96;100.00
23303;BME280;11820;48.738;9.092;2023-03-04T13:43:44;96739.47;;;3.50;100.00
23303;BME280;11820;48.738;9.092;2023-03-04T13:49:01;96739.22;;;3.80;100.00
23303;BME280;11820;48.738;9.092;2023-03-04T13:56:24;96739.22;;;3.25;100.00
23303;BME280;11820;48.738;9.092;2023-03-04T13:59:23;96736.25;;;3.39;100.00
23303;BME280;11820;48.738;9.092;2023-03-04T14:01:54;96746.09;;;3.24;100.00
23303;BME280;11820;48.738;9.092;2023-03-04T14:04:35;96741.50;;;3.37;100.00
23303;BME280;11820;48.738;9.092;2023-03-04T14:07:15;96743.63;;;3.51;100.00
23303;BME280;11820;48.738;9.092;2023-03-04T14:09:52;96740.41;;;3.49;100.00
23303;BME280;11820;48.738;9.092;2023-03-04T14:12:18;96742.88;;;3.22;100.00
23303;BME280;11820;48.738;9.092;2023-03-04T14:14:49;96742.81;;;3.41;100.00
23303;BME280;11820;48.738;9.092;2023-03-04T14:17:24;96727.38;;;3.33;100.00
23303;BME280;11820;48.738;9.092;2023-03-04T14:19:50;96726.00;;;3.48;100.00
23303;BME280;11820;48.738;9.092;2023-03-04T14:22:19;96737.59;;;3.33;100.00
23303;BME280;11820;48.738;9.092;2023-03-04T14:27:32;96729.66;;;3.36;100.00
23303;BME280;11820;48.738;9.092;2023-03-04T14:30:33;96728.19;;;3.34;100.00
23303;BME280;11820;48.738;9.092;2023-03-04T14:32:53;96717.69;;;3.37;100.00
23303;BME280;11820;48.738;9.092;2023-03-04T14:35:23;96722.50;;;3.49;100.00
23303;BME280;11820;48.738;9.092;2023-03-04T14:40:37;96723.31;;;3.40;100.00
23303;BME280;11820;48.738;9.092;2023-03-04T14:43:11;96706.53;;;3.38;100.00